sensor_id;sensor_type;location;lat;lon;timestamp;pressure;altitude;pressure_sealevel;temperature;humidity
30636;BME280;17400;52.392;9.750;2023-07-29T00:02:00;100127.19;;;21.08;100.00
30636;BME280;17400;52.392;9.750;2023-07-29T00:04:31;100117.28;;;21.02;100.00
30636;BME280;17400;52.392;9.750;2023-07-29T00:07:01;100123.06;;;21.01;100.00
30636;BME280;17400;52.392;9.750;2023-07-29T00:09:31;100120.91;;;20.97;100.00
30636;BME280;17400;52.392;9.750;2023-07-29T00:11:59;100116.22;;;20.93;100.00
30636;BME280;17400;52.392;9.750;2023-07-29T00:14:27;100115.13;;;20.94;100.00
30636;BME280;17400;52.392;9.750;2023-07-29T00:16:56;100118.16;;;20.92;100.00
30636;BME280;17400;52.392;9.750;2023-07-29T00:19:24;100120.41;;;20.90;100.00
30636;BME280;17400;52.392;9.750;2023-07-29T00:21:52;100123.69;;;20.87;100.00
30636;BME280;17400;52.392;9.750;2023-07-29T00:24:20;100127.53;;;20.86;100.00
30636;BME280;17400;52.392;9.750;2023-07-29T00:26:48;100128.66;;;20.85;100.00
30636;BME280;17400;52.392;9.750;2023-07-29T00:29:17;100131.13;;;20.87;100.00
30636;BME280;17400;52.392;9.750;2023-07-29T00:31:44;100132.78;;;20.83;100.00
30636;BME280;17400;52.392;9.750;2023-07-29T00:34:14;100133.88;;;20.82;100.00
30636;BME280;17400;52.392;9.750;2023-07-29T00:36:46;100124.78;;;20.86;100.00
30636;BME280;17400;52.392;9.750;2023-07-29T00:39:14;100116.28;;;20.88;100.00
30636;BME280;17400;52.392;9.750;2023-07-29T00:41:42;100112.97;;;20.86;100.00
30636;BME280;17400;52.392;9.750;2023-07-29T00:44:10;100125.34;;;20.83;100.00
30636;BME280;17400;52.392;9.750;2023-07-29T00:46:38;100124.28;;;20.79;100.00
30636;BME280;17400;52.392;9.750;2023-07-29T00:49:08;100111.31;;;20.79;100.00
30636;BME280;17400;52.392;9.750;2023-07-29T00:51:37;100106.09;;;20.78;100.00
30636;BME280;17400;52.392;9.750;2023-07-29T00:54:05;100113.84;;;20.76;100.00
30636;BME280;17400;52.392;9.750;2023-07-29T00:56:33;100106.97;;;20.73;100.00
30636;BME280;17400;52.392;9.750;2023-07-29T00:59:03;100109.72;;;20.73;100.00
30636;BME280;17400;52.392;9.750;2023-07-29T01:01:31;100114.66;;;20.71;100.00
30636;BME280;17400;52.392;9.750;2023-07-29T01:03:59;100118.22;;;20.67;100.00
30636;BME280;17400;52.392;9.750;2023-07-29T01:06:41;100119.63;;;20.64;100.00
30636;BME280;17400;52.392;9.750;2023-07-29T01:09:17;100117.41;;;20.61;100.00
30636;BME280;17400;52.392;9.750;2023-07-29T01:11:57;100111.91;;;20.61;100.00
30636;BME280;17400;52.392;9.750;2023-07-29T01:14:34;100109.16;;;20.61;100.00
30636;BME280;17400;52.392;9.750;2023-07-29T01:17:08;100106.69;;;20.59;100.00
30636;BME280;17400;52.392;9.750;2023-07-29T01:19:43;100107.53;;;20.60;100.00
30636;BME280;17400;52.392;9.750;2023-07-29T01:22:18;100106.97;;;20.58;100.00
30636;BME280;17400;52.392;9.750;2023-07-29T01:24:48;100097.06;;;20.57;100.00
30636;BME280;17400;52.392;9.750;2023-07-29T01:27:16;100089.91;;;20.56;100.00
30636;BME280;17400;52.392;9.750;2023-07-29T01:29:46;100097.34;;;20.55;100.00
30636;BME280;17400;52.392;9.750;2023-07-29T01:32:19;100096.25;;;20.51;100.00
30636;BME280;17400;52.392;9.750;2023-07-29T01:34:56;100101.22;;;20.49;100.00
30636;BME280;17400;52.392;9.750;2023-07-29T01:37:31;100103.44;;;20.47;100.00
30636;BME280;17400;52.392;9.750;2023-07-29T01:40:01;100097.38;;;20.45;100.00
30636;BME280;17400;52.392;9.750;2023-07-29T01:42:30;100100.97;;;20.40;100.00
30636;BME280;17400;52.392;9.750;2023-07-29T01:44:59;100104.81;;;20.39;100.00
30636;BME280;17400;52.392;9.750;2023-07-29T01:47:27;100096.56;;;20.39;100.00
30636;BME280;17400;52.392;9.750;2023-07-29T01:49:55;100099.59;;;20.38;100.00
30636;BME280;17400;52.392;9.750;2023-07-29T01:52:23;100098.22;;;20.40;100.00
30636;BME280;17400;52.392;9.750;2023-07-29T01:54:51;100094.91;;;20.43;100.00
30636;BME280;17400;52.392;9.750;2023-07-29T01:57:20;100092.44;;;20.42;100.00
30636;BME280;17400;52.392;9.750;2023-07-29T01:59:48;100097.38;;;20.45;100.00
30636;BME280;17400;52.392;9.750;2023-07-29T02:02:16;100092.72;;;20.45;100.00
30636;BME280;17400;52.392;9.750;2023-07-29T02:04:44;100086.38;;;20.45;100.00
30636;BME280;17400;52.392;9.750;2023-07-29T02:07:18;100072.91;;;20.43;100.00
30636;BME280;17400;52.392;9.750;2023-07-29T02:09:45;100073.72;;;20.44;100.00
30636;BME280;17400;52.392;9.750;2023-07-29T02:12:13;100074.00;;;20.42;100.00
30636;BME280;17400;52.392;9.750;2023-07-29T02:14:43;100076.75;;;20.42;100.00
30636;BME280;17400;52.392;9.750;2023-07-29T02:17:11;100074.28;;;20.41;100.00
30636;BME280;17400;52.392;9.750;2023-07-29T02:19:39;100075.38;;;20.40;100.00
30636;BME280;17400;52.392;9.750;2023-07-29T02:22:07;100073.19;;;20.37;100.00
30636;BME280;17400;52.392;9.750;2023-07-29T02:24:35;100071.25;;;20.37;100.00
30636;BME280;17400;52.392;9.750;2023-07-29T02:27:03;100073.19;;;20.37;100.00
30636;BME280;17400;52.392;9.750;2023-07-29T02:29:31;100068.25;;;20.39;100.00
30636;BME280;17400;52.392;9.750;2023-07-29T02:32:01;100065.22;;;20.40;100.00
30636;BME280;17400;52.392;9.750;2023-07-29T02:34:29;100061.94;;;20.38;100.00
30636;BME280;17400;52.392;9.750;2023-07-29T02:36:57;100066.63;;;20.38;100.00
30636;BME280;17400;52.392;9.750;2023-07-29T02:39:25;100067.44;;;20.33;100.00
30636;BME280;17400;52.392;9.750;2023-07-29T02:41:53;100064.16;;;20.31;100.00
30636;BME280;17400;52.392;9.750;2023-07-29T02:44:22;100055.34;;;20.29;100.00
30636;BME280;17400;52.392;9.750;2023-07-29T02:46:50;100061.69;;;20.29;100.00
30636;BME280;17400;52.392;9.750;2023-07-29T02:49:20;100061.41;;;20.26;100.00
30636;BME280;17400;52.392;9.750;2023-07-29T02:51:48;100063.88;;;20.27;100.00
30636;BME280;17400;52.392;9.750;2023-07-29T02:54:16;100067.72;;;20.26;100.00
30636;BME280;17400;52.392;9.750;2023-07-29T02:56:44;100054.25;;;20.25;100.00
30636;BME280;17400;52.392;9.750;2023-07-29T02:59:12;100052.59;;;20.24;100.00
30636;BME280;17400;52.392;9.750;2023-07-29T03:01:40;100060.56;;;20.25;100.00
30636;BME280;17400;52.392;9.750;2023-07-29T03:04:07;100060.56;;;20.25;100.00
30636;BME280;17400;52.392;9.750;2023-07-29T03:06:37;100071.03;;;20.23;100.00
30636;BME280;17400;52.392;9.750;2023-07-29T03:09:05;100070.47;;;20.21;100.00
30636;BME280;17400;52.392;9.750;2023-07-29T03:11:32;100067.72;;;20.21;100.00
30636;BME280;17400;52.392;9.750;2023-07-29T03:14:00;100072.69;;;20.19;100.00
30636;BME280;17400;52.392;9.750;2023-07-29T03:16:28;100060.84;;;20.19;100.00
30636;BME280;17400;52.392;9.750;2023-07-29T03:18:56;100058.38;;;20.22;100.00
30636;BME280;17400;52.392;9.750;2023-07-29T03:21:26;100057.28;;;20.23;100.00
30636;BME280;17400;52.392;9.750;2023-07-29T03:23:56;100066.34;;;20.24;100.00
30636;BME280;17400;52.392;9.750;2023-07-29T03:26:24;100055.34;;;20.24;100.00
30636;BME280;17400;52.392;9.750;2023-07-29T03:28:52;100054.53;;;20.23;100.00
30636;BME280;17400;52.392;9.750;2023-07-29T03:31:21;100056.44;;;20.23;100.00
30636;BME280;17400;52.392;9.750;2023-07-29T03:33:49;100056.44;;;20.23;100.00
30636;BME280;17400;52.392;9.750;2023-07-29T03:36:17;100052.59;;;20.24;100.00
30636;BME280;17400;52.392;9.750;2023-07-29T03:38:47;100053.69;;;20.23;100.00
30636;BME280;17400;52.392;9.750;2023-07-29T03:41:17;100047.94;;;20.24;100.00
30636;BME280;17400;52.392;9.750;2023-07-29T03:43:45;100045.47;;;20.23;100.00
30636;BME280;17400;52.392;9.750;2023-07-29T03:46:13;100051.78;;;20.23;100.00
30636;BME280;17400;52.392;9.750;2023-07-29T03:48:44;100042.19;;;20.21;100.00
30636;BME280;17400;52.392;9.750;2023-07-29T03:51:12;100043.00;;;20.16;100.00
30636;BME280;17400;52.392;9.750;2023-07-29T03:53:40;100041.63;;;20.13;100.00
30636;BME280;17400;52.392;9.750;2023-07-29T03:56:08;100043.84;;;20.17;100.00
30636;BME280;17400;52.392;9.750;2023-07-29T03:58:37;100046.03;;;20.20;100.00
30636;BME280;17400;52.392;9.750;2023-07-29T04:01:05;100043.84;;;20.22;100.00
30636;BME280;17400;52.392;9.750;2023-07-29T04:03:33;100045.47;;;20.23;100.00
30636;BME280;17400;52.392;9.750;2023-07-29T04:06:02;100045.22;;;20.24;100.00
30636;BME280;17400;52.392;9.750;2023-07-29T04:08:30;100032.28;;;20.25;100.00
30636;BME280;17400;52.392;9.750;2023-07-29T04:10:58;100041.63;;;20.24;100.00
30636;BME280;17400;52.392;9.750;2023-07-29T04:13:26;100035.03;;;20.25;100.00
30636;BME280;17400;52.392;9.750;2023-07-29T04:15:56;100041.09;;;20.27;100.00
30636;BME280;17400;52.392;9.750;2023-07-29T04:18:24;100032.56;;;20.23;100.00
30636;BME280;17400;52.392;9.750;2023-07-29T04:20:52;100034.47;;;20.23;100.00
30636;BME280;17400;52.392;9.750;2023-07-29T04:23:19;100032.56;;;20.23;100.00
30636;BME280;17400;52.392;9.750;2023-07-29T04:25:47;100020.72;;;20.23;100.00
30636;BME280;17400;52.392;9.750;2023-07-29T04:28:16;100028.72;;;20.24;100.00
30636;BME280;17400;52.392;9.750;2023-07-29T04:30:44;100017.16;;;20.22;100.00
30636;BME280;17400;52.392;9.750;2023-07-29T04:33:13;100010.31;;;20.20;100.00
30636;BME280;17400;52.392;9.750;2023-07-29T04:35:42;100013.88;;;20.20;100.00
30636;BME280;17400;52.392;9.750;2023-07-29T04:38:10;100009.22;;;20.21;100.00
30636;BME280;17400;52.392;9.750;2023-07-29T04:40:38;100009.50;;;20.19;100.00
30636;BME280;17400;52.392;9.750;2023-07-29T04:43:06;100011.41;;;20.19;100.00
30636;BME280;17400;52.392;9.750;2023-07-29T04:45:34;100008.66;;;20.13;100.00
30636;BME280;17400;52.392;9.750;2023-07-29T04:48:03;100025.72;;;20.10;100.00
30636;BME280;17400;52.392;9.750;2023-07-29T04:50:32;100027.94;;;20.08;100.00
30636;BME280;17400;52.392;9.750;2023-07-29T04:53:00;100031.22;;;20.05;100.00
30636;BME280;17400;52.392;9.750;2023-07-29T04:55:28;100026.28;;;20.07;100.00
30636;BME280;17400;52.392;9.750;2023-07-29T04:57:56;100035.31;;;20.08;100.00
30636;BME280;17400;52.392;9.750;2023-07-29T05:00:24;100042.75;;;20.07;100.00
30636;BME280;17400;52.392;9.750;2023-07-29T05:02:52;100045.50;;;20.02;100.00
30636;BME280;17400;52.392;9.750;2023-07-29T05:05:20;100046.59;;;20.01;100.00
30636;BME280;17400;52.392;9.750;2023-07-29T05:07:49;100029.31;;;20.01;100.00
30636;BME280;17400;52.392;9.750;2023-07-29T05:10:17;100018.03;;;20.07;100.00
30636;BME280;17400;52.392;9.750;2023-07-29T05:12:45;100016.38;;;20.11;100.00
30636;BME280;17400;52.392;9.750;2023-07-29T05:15:14;100007.03;;;20.12;100.00
30636;BME280;17400;52.392;9.750;2023-07-29T05:17:42;99988.63;;;20.08;100.00
30636;BME280;17400;52.392;9.750;2023-07-29T05:20:11;99990.00;;;20.00;100.00
30636;BME280;17400;52.392;9.750;2023-07-29T05:22:39;99999.91;;;19.96;100.00
30636;BME280;17400;52.392;9.750;2023-07-29T05:25:08;100004.31;;;19.92;100.00
30636;BME280;17400;52.392;9.750;2023-07-29T05:27:37;100005.69;;;19.94;100.00
30636;BME280;17400;52.392;9.750;2023-07-29T05:30:06;100002.13;;;19.99;100.00
30636;BME280;17400;52.392;9.750;2023-07-29T05:32:37;99997.72;;;20.03;100.00
30636;BME280;17400;52.392;9.750;2023-07-29T05:35:06;99999.63;;;20.08;100.00
30636;BME280;17400;52.392;9.750;2023-07-29T05:37:34;99992.16;;;20.13;100.00
30636;BME280;17400;52.392;9.750;2023-07-29T05:40:03;99994.91;;;20.19;100.00
30636;BME280;17400;52.392;9.750;2023-07-29T05:42:32;99993.81;;;20.25;100.00
30636;BME280;17400;52.392;9.750;2023-07-29T05:45:01;99995.47;;;20.26;100.00
30636;BME280;17400;52.392;9.750;2023-07-29T05:47:29;99997.06;;;20.32;100.00
30636;BME280;17400;52.392;9.750;2023-07-29T05:49:57;99988.81;;;20.37;100.00
30636;BME280;17400;52.392;9.750;2023-07-29T05:52:28;99990.19;;;20.35;100.00
30636;BME280;17400;52.392;9.750;2023-07-29T05:54:57;99994.31;;;20.32;100.00
30636;BME280;17400;52.392;9.750;2023-07-29T05:57:24;99996.25;;;20.31;100.00
30636;BME280;17400;52.392;9.750;2023-07-29T05:59:56;99992.69;;;20.31;100.00
30636;BME280;17400;52.392;9.750;2023-07-29T06:02:24;99993.00;;;20.24;100.00
30636;BME280;17400;52.392;9.750;2023-07-29T06:04:55;99992.72;;;20.26;100.00
30636;BME280;17400;52.392;9.750;2023-07-29T06:07:23;100006.97;;;20.23;100.00
30636;BME280;17400;52.392;9.750;2023-07-29T06:09:55;100010.03;;;20.21;100.00
30636;BME280;17400;52.392;9.750;2023-07-29T06:12:25;100012.78;;;20.16;100.00
30636;BME280;17400;52.392;9.750;2023-07-29T06:14:54;100015.28;;;20.12;100.00
30636;BME280;17400;52.392;9.750;2023-07-29T06:17:22;100004.00;;;20.14;100.00
30636;BME280;17400;52.392;9.750;2023-07-29T06:19:54;100001.53;;;20.12;100.00
30636;BME280;17400;52.392;9.750;2023-07-29T06:22:22;99993.84;;;20.09;100.00
30636;BME280;17400;52.392;9.750;2023-07-29T06:24:52;99988.91;;;20.06;100.00
30636;BME280;17400;52.392;9.750;2023-07-29T06:27:20;99985.88;;;20.08;100.00
30636;BME280;17400;52.392;9.750;2023-07-29T06:29:48;99990.56;;;20.12;100.00
30636;BME280;17400;52.392;9.750;2023-07-29T06:32:18;99996.03;;;20.12;100.00
30636;BME280;17400;52.392;9.750;2023-07-29T06:34:47;100002.63;;;20.17;100.00
30636;BME280;17400;52.392;9.750;2023-07-29T06:37:16;100010.31;;;20.20;100.00
30636;BME280;17400;52.392;9.750;2023-07-29T06:39:44;100011.09;;;20.25;100.00
30636;BME280;17400;52.392;9.750;2023-07-29T06:42:13;100010.56;;;20.34;100.00
30636;BME280;17400;52.392;9.750;2023-07-29T06:44:41;100017.41;;;20.41;100.00
30636;BME280;17400;52.392;9.750;2023-07-29T06:47:10;100018.72;;;20.49;100.00
30636;BME280;17400;52.392;9.750;2023-07-29T06:49:39;100023.94;;;20.56;100.00
30636;BME280;17400;52.392;9.750;2023-07-29T06:52:07;100020.63;;;20.69;100.00
30636;BME280;17400;52.392;9.750;2023-07-29T06:54:35;100019.38;;;20.96;100.00
30636;BME280;17400;52.392;9.750;2023-07-29T06:57:04;100014.63;;;21.12;100.00
30636;BME280;17400;52.392;9.750;2023-07-29T06:59:33;100019.81;;;21.13;100.00
30636;BME280;17400;52.392;9.750;2023-07-29T07:02:01;100014.59;;;21.17;100.00
30636;BME280;17400;52.392;9.750;2023-07-29T07:04:29;100012.13;;;21.16;100.00
30636;BME280;17400;52.392;9.750;2023-07-29T07:06:59;100017.63;;;21.16;100.00
30636;BME280;17400;52.392;9.750;2023-07-29T07:09:27;100025.59;;;21.17;100.00
30636;BME280;17400;52.392;9.750;2023-07-29T07:11:55;100026.97;;;21.14;100.00
30636;BME280;17400;52.392;9.750;2023-07-29T07:14:23;100022.59;;;21.08;100.00
30636;BME280;17400;52.392;9.750;2023-07-29T07:16:52;100024.84;;;21.06;100.00
30636;BME280;17400;52.392;9.750;2023-07-29T07:19:21;100025.38;;;21.03;100.00
30636;BME280;17400;52.392;9.750;2023-07-29T07:21:49;100022.16;;;20.91;100.00
30636;BME280;17400;52.392;9.750;2023-07-29T07:24:18;100013.63;;;20.92;100.00
30636;BME280;17400;52.392;9.750;2023-07-29T07:26:46;100005.91;;;20.94;100.00
30636;BME280;17400;52.392;9.750;2023-07-29T07:29:15;100003.16;;;20.94;100.00
30636;BME280;17400;52.392;9.750;2023-07-29T07:31:50;100003.69;;;20.96;100.00
30636;BME280;17400;52.392;9.750;2023-07-29T07:34:18;100008.66;;;20.94;100.00
30636;BME280;17400;52.392;9.750;2023-07-29T07:36:46;100011.69;;;20.93;100.00
30636;BME280;17400;52.392;9.750;2023-07-29T07:39:14;100014.72;;;20.91;100.00
30636;BME280;17400;52.392;9.750;2023-07-29T07:41:44;100017.25;;;20.88;100.00
30636;BME280;17400;52.392;9.750;2023-07-29T07:44:13;100009.78;;;20.93;100.00
30636;BME280;17400;52.392;9.750;2023-07-29T07:46:44;99993.44;;;21.07;100.00
30636;BME280;17400;52.392;9.750;2023-07-29T07:49:12;99999.44;;;21.20;100.00
30636;BME280;17400;52.392;9.750;2023-07-29T07:51:40;99998.81;;;21.28;100.00
30636;BME280;17400;52.392;9.750;2023-07-29T07:54:08;99982.44;;;21.42;100.00
30636;BME280;17400;52.392;9.750;2023-07-29T07:56:36;99983.50;;;21.51;100.00
30636;BME280;17400;52.392;9.750;2023-07-29T07:59:06;99975.50;;;21.55;100.00
30636;BME280;17400;52.392;9.750;2023-07-29T08:01:35;99968.91;;;21.51;100.00
30636;BME280;17400;52.392;9.750;2023-07-29T08:04:03;99981.56;;;21.52;100.00
30636;BME280;17400;52.392;9.750;2023-07-29T08:06:32;99993.16;;;21.49;100.00
30636;BME280;17400;52.392;9.750;2023-07-29T08:09:01;99987.13;;;21.46;100.00
30636;BME280;17400;52.392;9.750;2023-07-29T08:11:29;99992.03;;;21.55;100.00
30636;BME280;17400;52.392;9.750;2023-07-29T08:13:58;99987.88;;;21.57;100.00
30636;BME280;17400;52.392;9.750;2023-07-29T08:16:27;99995.03;;;21.58;100.00
30636;BME280;17400;52.392;9.750;2023-07-29T08:18:55;99996.72;;;21.49;100.00
30636;BME280;17400;52.392;9.750;2023-07-29T08:21:23;99988.22;;;21.45;100.00
30636;BME280;17400;52.392;9.750;2023-07-29T08:23:51;99985.75;;;21.44;100.00
30636;BME280;17400;52.392;9.750;2023-07-29T08:26:19;99986.31;;;21.46;100.00
30636;BME280;17400;52.392;9.750;2023-07-29T08:28:48;99988.19;;;21.51;100.00
30636;BME280;17400;52.392;9.750;2023-07-29T08:31:20;99990.91;;;21.56;100.00
30636;BME280;17400;52.392;9.750;2023-07-29T08:33:50;99993.69;;;21.56;100.00
30636;BME280;17400;52.392;9.750;2023-07-29T08:36:18;99997.53;;;21.50;100.00
30636;BME280;17400;52.392;9.750;2023-07-29T08:38:46;100003.69;;;21.36;100.00
30636;BME280;17400;52.392;9.750;2023-07-29T08:41:16;100004.34;;;21.23;100.00
30636;BME280;17400;52.392;9.750;2023-07-29T08:43:50;99998.38;;;21.16;100.00
30636;BME280;17400;52.392;9.750;2023-07-29T08:46:20;99992.59;;;21.12;100.00
30636;BME280;17400;52.392;9.750;2023-07-29T08:48:49;99986.50;;;21.15;100.00
30636;BME280;17400;52.392;9.750;2023-07-29T08:51:19;99988.94;;;21.22;100.00
30636;BME280;17400;52.392;9.750;2023-07-29T08:53:48;99990.25;;;21.29;100.00
30636;BME280;17400;52.392;9.750;2023-07-29T08:56:16;99991.03;;;21.35;100.00
30636;BME280;17400;52.392;9.750;2023-07-29T08:58:45;99990.50;;;21.38;100.00
30636;BME280;17400;52.392;9.750;2023-07-29T09:01:14;99984.34;;;21.46;100.00
30636;BME280;17400;52.392;9.750;2023-07-29T09:03:44;99992.06;;;21.44;100.00
30636;BME280;17400;52.392;9.750;2023-07-29T09:06:14;99991.78;;;21.51;100.00
30636;BME280;17400;52.392;9.750;2023-07-29T09:08:43;99990.13;;;21.55;100.00
30636;BME280;17400;52.392;9.750;2023-07-29T09:11:13;99999.19;;;21.56;100.00
30636;BME280;17400;52.392;9.750;2023-07-29T09:13:43;99994.75;;;21.60;100.00
30636;BME280;17400;52.392;9.750;2023-07-29T09:16:12;99989.47;;;21.63;100.00
30636;BME280;17400;52.392;9.750;2023-07-29T09:18:40;99979.44;;;21.78;100.00
30636;BME280;17400;52.392;9.750;2023-07-29T09:21:09;99983.16;;;21.92;100.00
30636;BME280;17400;52.392;9.750;2023-07-29T09:23:42;99973.13;;;22.26;100.00
30636;BME280;17400;52.392;9.750;2023-07-29T09:26:10;99971.66;;;22.58;100.00
30636;BME280;17400;52.392;9.750;2023-07-29T09:28:40;99969.81;;;22.72;100.00
30636;BME280;17400;52.392;9.750;2023-07-29T09:31:18;99959.25;;;22.79;100.00
30636;BME280;17400;52.392;9.750;2023-07-29T09:33:49;99963.00;;;22.89;100.00
30636;BME280;17400;52.392;9.750;2023-07-29T09:36:17;99968.84;;;22.82;100.00
30636;BME280;17400;52.392;9.750;2023-07-29T09:38:46;99959.41;;;22.88;100.00
30636;BME280;17400;52.392;9.750;2023-07-29T09:41:15;99967.75;;;22.83;100.00
30636;BME280;17400;52.392;9.750;2023-07-29T09:43:44;99964.97;;;22.83;100.00
30636;BME280;17400;52.392;9.750;2023-07-29T09:46:12;99958.66;;;22.83;100.00
30636;BME280;17400;52.392;9.750;2023-07-29T09:48:40;99964.19;;;22.83;100.00
30636;BME280;17400;52.392;9.750;2023-07-29T09:51:10;99965.28;;;22.82;100.00
30636;BME280;17400;52.392;9.750;2023-07-29T09:53:42;99961.72;;;22.81;100.00
30636;BME280;17400;52.392;9.750;2023-07-29T09:56:14;99963.94;;;22.79;100.00
30636;BME280;17400;52.392;9.750;2023-07-29T09:58:43;99955.59;;;22.84;100.00
30636;BME280;17400;52.392;9.750;2023-07-29T10:01:12;99959.03;;;22.95;100.00
30636;BME280;17400;52.392;9.750;2023-07-29T10:03:42;99960.28;;;23.03;100.00
30636;BME280;17400;52.392;9.750;2023-07-29T10:06:11;99962.00;;;22.99;100.00
30636;BME280;17400;52.392;9.750;2023-07-29T10:08:42;99949.41;;;23.11;100.00
30636;BME280;17400;52.392;9.750;2023-07-29T10:11:10;99944.69;;;23.12;100.00
30636;BME280;17400;52.392;9.750;2023-07-29T10:13:40;99941.78;;;23.03;100.00
30636;BME280;17400;52.392;9.750;2023-07-29T10:16:16;99941.56;;;23.19;100.00
30636;BME280;17400;52.392;9.750;2023-07-29T10:18:44;99946.09;;;23.09;100.00
30636;BME280;17400;52.392;9.750;2023-07-29T10:21:13;99937.84;;;23.28;100.00
30636;BME280;17400;52.392;9.750;2023-07-29T10:23:43;99941.34;;;23.34;100.00
30636;BME280;17400;52.392;9.750;2023-07-29T10:26:16;99940.97;;;23.55;100.00
30636;BME280;17400;52.392;9.750;2023-07-29T10:28:52;99948.50;;;23.68;100.00
30636;BME280;17400;52.392;9.750;2023-07-29T10:31:22;99948.00;;;23.80;100.00
30636;BME280;17400;52.392;9.750;2023-07-29T10:33:51;99946.84;;;23.81;100.00
30636;BME280;17400;52.392;9.750;2023-07-29T10:36:19;99939.16;;;23.64;100.00
30636;BME280;17400;52.392;9.750;2023-07-29T10:38:50;99944.44;;;23.46;100.00
30636;BME280;17400;52.392;9.750;2023-07-29T10:41:18;99941.84;;;23.36;100.00
30636;BME280;17400;52.392;9.750;2023-07-29T10:43:48;99946.47;;;23.22;100.00
30636;BME280;17400;52.392;9.750;2023-07-29T10:46:16;99938.06;;;23.13;100.00
30636;BME280;17400;52.392;9.750;2023-07-29T10:48:53;99942.31;;;23.05;100.00
30636;BME280;17400;52.392;9.750;2023-07-29T10:51:25;99944.25;;;23.05;100.00
30636;BME280;17400;52.392;9.750;2023-07-29T10:54:02;99946.63;;;23.11;100.00
30636;BME280;17400;52.392;9.750;2023-07-29T10:56:32;99938.59;;;23.15;100.00
30636;BME280;17400;52.392;9.750;2023-07-29T10:59:31;99948.38;;;23.07;100.00
30636;BME280;17400;52.392;9.750;2023-07-29T11:02:01;99952.16;;;23.11;100.00
30636;BME280;17400;52.392;9.750;2023-07-29T11:04:30;99949.63;;;23.15;100.00
30636;BME280;17400;52.392;9.750;2023-07-29T11:07:26;99949.84;;;23.19;100.00
30636;BME280;17400;52.392;9.750;2023-07-29T11:09:57;99948.75;;;23.20;100.00
30636;BME280;17400;52.392;9.750;2023-07-29T11:12:36;99954.03;;;23.16;100.00
30636;BME280;17400;52.392;9.750;2023-07-29T11:15:14;99945.81;;;23.30;100.00
30636;BME280;17400;52.392;9.750;2023-07-29T11:17:44;99950.72;;;23.33;100.00
30636;BME280;17400;52.392;9.750;2023-07-29T11:20:14;99948.69;;;23.39;100.00
30636;BME280;17400;52.392;9.750;2023-07-29T11:22:42;99951.38;;;23.44;100.00
30636;BME280;17400;52.392;9.750;2023-07-29T11:25:14;99942.63;;;23.56;100.00
30636;BME280;17400;52.392;9.750;2023-07-29T11:27:42;99936.50;;;23.59;100.00
30636;BME280;17400;52.392;9.750;2023-07-29T11:30:13;99955.09;;;23.53;100.00
30636;BME280;17400;52.392;9.750;2023-07-29T11:32:43;99948.53;;;23.49;97.53
30636;BME280;17400;52.392;9.750;2023-07-29T11:35:13;99943.88;;;23.63;96.20
30636;BME280;17400;52.392;9.750;2023-07-29T11:37:43;99943.06;;;23.63;90.78
30636;BME280;17400;52.392;9.750;2023-07-29T11:40:14;99948.75;;;23.53;83.78
30636;BME280;17400;52.392;9.750;2023-07-29T11:42:42;99950.81;;;23.61;78.95
30636;BME280;17400;52.392;9.750;2023-07-29T11:45:12;99959.34;;;23.78;79.12
30636;BME280;17400;52.392;9.750;2023-07-29T11:47:44;99957.50;;;23.88;69.21
30636;BME280;17400;52.392;9.750;2023-07-29T11:50:13;99958.78;;;23.95;67.12
30636;BME280;17400;52.392;9.750;2023-07-29T11:52:43;99966.47;;;24.12;68.19
30636;BME280;17400;52.392;9.750;2023-07-29T11:55:13;99968.22;;;24.36;69.71
30636;BME280;17400;52.392;9.750;2023-07-29T11:57:43;99973.44;;;24.38;65.35
30636;BME280;17400;52.392;9.750;2023-07-29T12:00:12;99964.81;;;24.39;65.93
30636;BME280;17400;52.392;9.750;2023-07-29T12:02:42;99980.00;;;24.28;68.55
30636;BME280;17400;52.392;9.750;2023-07-29T12:05:13;99976.31;;;24.19;70.38
30636;BME280;17400;52.392;9.750;2023-07-29T12:07:43;99971.63;;;24.33;65.96
30636;BME280;17400;52.392;9.750;2023-07-29T12:10:12;99979.56;;;24.49;65.86
30636;BME280;17400;52.392;9.750;2023-07-29T12:12:46;99977.94;;;24.75;63.25
30636;BME280;17400;52.392;9.750;2023-07-29T12:15:24;99978.13;;;24.79;61.14
30636;BME280;17400;52.392;9.750;2023-07-29T12:17:54;99980.09;;;24.65;60.02
30636;BME280;17400;52.392;9.750;2023-07-29T12:20:25;99986.03;;;24.58;62.75
30636;BME280;17400;52.392;9.750;2023-07-29T12:22:55;99988.28;;;24.56;65.21
30636;BME280;17400;52.392;9.750;2023-07-29T12:25:23;99993.66;;;24.66;65.32
30636;BME280;17400;52.392;9.750;2023-07-29T12:27:51;99983.97;;;24.77;62.64
30636;BME280;17400;52.392;9.750;2023-07-29T12:30:20;99978.09;;;24.93;61.28
30636;BME280;17400;52.392;9.750;2023-07-29T12:32:50;99986.22;;;24.89;63.67
30636;BME280;17400;52.392;9.750;2023-07-29T12:35:18;99977.28;;;24.92;62.05
30636;BME280;17400;52.392;9.750;2023-07-29T12:37:46;99975.84;;;24.95;61.45
30636;BME280;17400;52.392;9.750;2023-07-29T12:40:21;99977.78;;;24.94;59.74
30636;BME280;17400;52.392;9.750;2023-07-29T12:42:50;99971.56;;;24.89;60.23
30636;BME280;17400;52.392;9.750;2023-07-29T12:45:19;99980.19;;;24.87;62.16
30636;BME280;17400;52.392;9.750;2023-07-29T12:47:51;99982.44;;;24.71;65.46
30636;BME280;17400;52.392;9.750;2023-07-29T12:50:19;99991.78;;;24.48;68.48
30636;BME280;17400;52.392;9.750;2023-07-29T12:52:47;99982.38;;;24.35;69.51
30636;BME280;17400;52.392;9.750;2023-07-29T12:55:15;99985.22;;;24.29;71.28
30636;BME280;17400;52.392;9.750;2023-07-29T12:57:49;99971.91;;;24.18;73.37